sensor_id;sensor_type;location;lat;lon;timestamp;pressure;altitude;pressure_sealevel;temperature;humidity
71770;BME280;59605;52.122;5.420;2022-10-04T00:02:30;102459.59;;;20.68;58.53
71770;BME280;59605;52.122;5.420;2022-10-04T00:05:03;102457.81;;;20.69;58.55
71770;BME280;59605;52.122;5.420;2022-10-04T00:07:38;102464.00;;;20.68;58.37
71770;BME280;59605;52.122;5.420;2022-10-04T00:10:19;102467.44;;;20.68;58.58
71770;BME280;59605;52.122;5.420;2022-10-04T00:12:51;102457.91;;;20.67;58.35
71770;BME280;59605;52.122;5.420;2022-10-04T00:15:24;102462.22;;;20.68;58.17
71770;BME280;59605;52.122;5.420;2022-10-04T00:18:06;102462.31;;;20.67;58.58
71770;BME280;59605;52.122;5.420;2022-10-04T00:27:09;102449.25;;;20.67;58.14
71770;BME280;59605;52.122;5.420;2022-10-04T00:29:22;102448.41;;;20.66;58.55
71770;BME280;59605;52.122;5.420;2022-10-04T00:34:48;102439.69;;;20.66;58.30
71770;BME280;59605;52.122;5.420;2022-10-04T00:37:17;102431.84;;;20.66;58.56
71770;BME280;59605;52.122;5.420;2022-10-04T00:39:46;102424.94;;;20.65;58.15
71770;BME280;59605;52.122;5.420;2022-10-04T00:50:23;102418.88;;;20.64;58.45
71770;BME280;59605;52.122;5.420;2022-10-04T00:52:54;102414.56;;;20.63;58.23
71770;BME280;59605;52.122;5.420;2022-10-04T00:55:34;102415.59;;;20.61;58.39
71770;BME280;59605;52.122;5.420;2022-10-04T00:58:05;102425.00;;;20.63;58.31
71770;BME280;59605;52.122;5.420;2022-10-04T01:00:35;102429.41;;;20.63;58.54
71770;BME280;59605;52.122;5.420;2022-10-04T01:03:17;102429.41;;;20.63;58.50
71770;BME280;59605;52.122;5.420;2022-10-04T01:05:51;102423.34;;;20.62;58.34
71770;BME280;59605;52.122;5.420;2022-10-04T01:08:36;102412.03;;;20.62;58.57
71770;BME280;59605;52.122;5.420;2022-10-04T01:11:09;102406.81;;;20.62;58.22
71770;BME280;59605;52.122;5.420;2022-10-04T01:13:42;102401.56;;;20.62;58.59
71770;BME280;59605;52.122;5.420;2022-10-04T01:16:27;102398.97;;;20.62;58.28
71770;BME280;59605;52.122;5.420;2022-10-04T01:18:54;102407.75;;;20.61;58.42
71770;BME280;59605;52.122;5.420;2022-10-04T01:21:41;102405.13;;;20.61;58.12
71770;BME280;59605;52.122;5.420;2022-10-04T01:26:38;102389.56;;;20.59;58.13
71770;BME280;59605;52.122;5.420;2022-10-04T01:31:37;102378.25;;;20.58;58.35
71770;BME280;59605;52.122;5.420;2022-10-04T01:34:06;102375.53;;;20.60;58.05
71770;BME280;59605;52.122;5.420;2022-10-04T01:36:33;102363.44;;;20.59;58.39
71770;BME280;59605;52.122;5.420;2022-10-04T01:39:01;102364.25;;;20.60;57.94
71770;BME280;59605;52.122;5.420;2022-10-04T01:41:43;102362.56;;;20.58;58.16
71770;BME280;59605;52.122;5.420;2022-10-04T01:44:21;102365.19;;;20.58;58.49
71770;BME280;59605;52.122;5.420;2022-10-04T01:46:51;102359.22;;;20.56;58.17
71770;BME280;59605;52.122;5.420;2022-10-04T01:49:23;102371.34;;;20.57;58.42
71770;BME280;59605;52.122;5.420;2022-10-04T01:51:56;102371.34;;;20.57;58.09
71770;BME280;59605;52.122;5.420;2022-10-04T01:54:35;102369.66;;;20.56;58.44
71770;BME280;59605;52.122;5.420;2022-10-04T01:57:11;102360.91;;;20.57;58.24
71770;BME280;59605;52.122;5.420;2022-10-04T01:59:45;102355.69;;;20.57;58.22
71770;BME280;59605;52.122;5.420;2022-10-04T02:02:22;102353.16;;;20.56;58.12
71770;BME280;59605;52.122;5.420;2022-10-04T02:04:53;102348.75;;;20.56;57.91
71770;BME280;59605;52.122;5.420;2022-10-04T02:07:21;102341.00;;;20.55;57.97
71770;BME280;59605;52.122;5.420;2022-10-04T02:09:53;102331.41;;;20.55;58.00
71770;BME280;59605;52.122;5.420;2022-10-04T02:12:21;102329.69;;;20.54;58.03
71770;BME280;59605;52.122;5.420;2022-10-04T02:14:49;102320.84;;;20.57;58.22
71770;BME280;59605;52.122;5.420;2022-10-04T02:17:21;102319.25;;;20.54;57.86
71770;BME280;59605;52.122;5.420;2022-10-04T02:19:49;102316.63;;;20.54;57.78
71770;BME280;59605;52.122;5.420;2022-10-04T02:22:16;102312.38;;;20.53;58.11
71770;BME280;59605;52.122;5.420;2022-10-04T02:24:45;102310.59;;;20.54;57.81
71770;BME280;59605;52.122;5.420;2022-10-04T02:27:13;102310.59;;;20.54;57.77
71770;BME280;59605;52.122;5.420;2022-10-04T02:29:40;102303.56;;;20.54;57.61
71770;BME280;59605;52.122;5.420;2022-10-04T02:32:07;102286.25;;;20.53;58.00
71770;BME280;59605;52.122;5.420;2022-10-04T02:34:54;102293.22;;;20.53;57.98
71770;BME280;59605;52.122;5.420;2022-10-04T02:37:22;102281.94;;;20.52;57.83
71770;BME280;59605;52.122;5.420;2022-10-04T02:40:10;102287.16;;;20.52;57.91
71770;BME280;59605;52.122;5.420;2022-10-04T02:43:15;102280.25;;;20.51;57.92
71770;BME280;59605;52.122;5.420;2022-10-04T02:45:49;102280.25;;;20.51;57.96
71770;BME280;59605;52.122;5.420;2022-10-04T02:51:13;102275.09;;;20.50;57.89
71770;BME280;59605;52.122;5.420;2022-10-04T02:53:57;102270.75;;;20.50;57.89
71770;BME280;59605;52.122;5.420;2022-10-04T02:56:30;102277.72;;;20.50;57.99
71770;BME280;59605;52.122;5.420;2022-10-04T02:59:00;102278.59;;;20.50;57.89
71770;BME280;59605;52.122;5.420;2022-10-04T03:01:49;102270.75;;;20.50;57.64
71770;BME280;59605;52.122;5.420;2022-10-04T03:04:19;102266.44;;;20.49;57.85
71770;BME280;59605;52.122;5.420;2022-10-04T03:06:49;102268.22;;;20.49;57.50
71770;BME280;59605;52.122;5.420;2022-10-04T03:09:16;102256.09;;;20.48;57.65
71770;BME280;59605;52.122;5.420;2022-10-04T03:11:45;102248.25;;;20.48;57.81
71770;BME280;59605;52.122;5.420;2022-10-04T03:14:15;102255.16;;;20.49;57.47
71770;BME280;59605;52.122;5.420;2022-10-04T03:16:44;102247.41;;;20.47;57.79
71770;BME280;59605;52.122;5.420;2022-10-04T03:19:14;102243.94;;;20.47;57.40
71770;BME280;59605;52.122;5.420;2022-10-04T03:21:43;102248.25;;;20.48;57.31
71770;BME280;59605;52.122;5.420;2022-10-04T03:24:20;102236.09;;;20.47;57.32
71770;BME280;59605;52.122;5.420;2022-10-04T03:26:50;102232.66;;;20.46;57.66
71770;BME280;59605;52.122;5.420;2022-10-04T03:29:18;102232.66;;;20.46;57.59
71770;BME280;59605;52.122;5.420;2022-10-04T03:31:48;102227.44;;;20.46;57.44
71770;BME280;59605;52.122;5.420;2022-10-04T03:34:21;102231.81;;;20.46;57.68
71770;BME280;59605;52.122;5.420;2022-10-04T03:36:50;102223.97;;;20.46;57.41
71770;BME280;59605;52.122;5.420;2022-10-04T03:39:37;102217.91;;;20.45;57.42
71770;BME280;59605;52.122;5.420;2022-10-04T03:42:20;102227.53;;;20.45;57.52
71770;BME280;59605;52.122;5.420;2022-10-04T03:44:49;102227.53;;;20.45;57.35
71770;BME280;59605;52.122;5.420;2022-10-04T03:47:20;102234.50;;;20.44;57.46
71770;BME280;59605;52.122;5.420;2022-10-04T03:49:49;102233.66;;;20.44;57.19
71770;BME280;59605;52.122;5.420;2022-10-04T03:52:25;102226.66;;;20.44;57.13
71770;BME280;59605;52.122;5.420;2022-10-04T03:54:55;102217.16;;;20.43;57.25
71770;BME280;59605;52.122;5.420;2022-10-04T03:57:23;102209.44;;;20.42;57.44
71770;BME280;59605;52.122;5.420;2022-10-04T03:59:50;102218.91;;;20.43;57.13
71770;BME280;59605;52.122;5.420;2022-10-04T04:02:28;102219.88;;;20.42;57.17
71770;BME280;59605;52.122;5.420;2022-10-04T04:05:26;102215.47;;;20.42;57.28
71770;BME280;59605;52.122;5.420;2022-10-04T04:10:46;102221.63;;;20.41;57.31
71770;BME280;59605;52.122;5.420;2022-10-04T04:15:47;102208.56;;;20.41;56.92
71770;BME280;59605;52.122;5.420;2022-10-04T04:18:22;102203.44;;;20.39;57.41
71770;BME280;59605;52.122;5.420;2022-10-04T04:20:51;102205.22;;;20.39;57.25
71770;BME280;59605;52.122;5.420;2022-10-04T04:23:25;102203.53;;;20.38;57.11
71770;BME280;59605;52.122;5.420;2022-10-04T04:25:55;102200.81;;;20.39;57.18
71770;BME280;59605;52.122;5.420;2022-10-04T04:28:37;102197.47;;;20.37;57.01
71770;BME280;59605;52.122;5.420;2022-10-04T04:31:18;102203.53;;;20.38;57.04
71770;BME280;59605;52.122;5.420;2022-10-04T04:33:56;102191.38;;;20.37;57.04
71770;BME280;59605;52.122;5.420;2022-10-04T04:36:28;102199.16;;;20.38;56.65
71770;BME280;59605;52.122;5.420;2022-10-04T04:39:19;102201.00;;;20.36;56.95
71770;BME280;59605;52.122;5.420;2022-10-04T04:42:15;102208.84;;;20.36;56.60
71770;BME280;59605;52.122;5.420;2022-10-04T04:44:47;102194.94;;;20.36;56.49
71770;BME280;59605;52.122;5.420;2022-10-04T04:49:56;102193.25;;;20.35;56.54
71770;BME280;59605;52.122;5.420;2022-10-04T04:52:26;102193.25;;;20.35;56.66
71770;BME280;59605;52.122;5.420;2022-10-04T04:54:54;102188.94;;;20.34;56.79
71770;BME280;59605;52.122;5.420;2022-10-04T04:57:21;102193.25;;;20.35;56.47
71770;BME280;59605;52.122;5.420;2022-10-04T04:59:52;102181.13;;;20.34;56.74
71770;BME280;59605;52.122;5.420;2022-10-04T05:02:32;102187.28;;;20.33;56.58
71770;BME280;59605;52.122;5.420;2022-10-04T05:05:16;102192.50;;;20.33;56.59
71770;BME280;59605;52.122;5.420;2022-10-04T05:07:43;102186.34;;;20.34;56.78
71770;BME280;59605;52.122;5.420;2022-10-04T05:10:31;102193.34;;;20.33;56.41
71770;BME280;59605;52.122;5.420;2022-10-04T05:12:59;102182.06;;;20.33;56.27
71770;BME280;59605;52.122;5.420;2022-10-04T05:15:35;102190.81;;;20.32;56.32
71770;BME280;59605;52.122;5.420;2022-10-04T05:18:30;102196.88;;;20.32;56.30
71770;BME280;59605;52.122;5.420;2022-10-04T05:21:04;102198.66;;;20.32;56.33
71770;BME280;59605;52.122;5.420;2022-10-04T05:23:33;102194.34;;;20.31;56.44
71770;BME280;59605;52.122;5.420;2022-10-04T05:26:01;102197.81;;;20.31;56.24
71770;BME280;59605;52.122;5.420;2022-10-04T05:28:30;102200.53;;;20.30;56.30
71770;BME280;59605;52.122;5.420;2022-10-04T05:31:20;102197.91;;;20.30;56.11
71770;BME280;59605;52.122;5.420;2022-10-04T05:33:52;102197.91;;;20.30;56.17
71770;BME280;59605;52.122;5.420;2022-10-04T05:39:25;102197.06;;;20.29;56.26
71770;BME280;59605;52.122;5.420;2022-10-04T05:41:59;102207.50;;;20.29;56.32
71770;BME280;59605;52.122;5.420;2022-10-04T05:44:29;102202.28;;;20.29;56.06
71770;BME280;59605;52.122;5.420;2022-10-04T05:46:58;102202.34;;;20.28;56.07
71770;BME280;59605;52.122;5.420;2022-10-04T05:49:32;102206.66;;;20.29;56.35
71770;BME280;59605;52.122;5.420;2022-10-04T05:52:13;102204.13;;;20.27;56.40
71770;BME280;59605;52.122;5.420;2022-10-04T05:54:40;102205.88;;;20.27;56.24
71770;BME280;59605;52.122;5.420;2022-10-04T05:58:09;102202.53;;;20.25;56.56
71770;BME280;59605;52.122;5.420;2022-10-04T06:00:18;102193.78;;;20.26;56.33
71770;BME280;59605;52.122;5.420;2022-10-04T06:05:24;102203.38;;;20.25;56.54
71770;BME280;59605;52.122;5.420;2022-10-04T06:08:18;102211.28;;;20.23;56.76
71770;BME280;59605;52.122;5.420;2022-10-04T06:14:00;102213.91;;;20.23;57.40
71770;BME280;59605;52.122;5.420;2022-10-04T06:16:57;102213.06;;;20.23;56.85
71770;BME280;59605;52.122;5.420;2022-10-04T06:22:19;102210.53;;;20.21;57.38
71770;BME280;59605;52.122;5.420;2022-10-04T06:24:59;102207.09;;;20.21;56.84
71770;BME280;59605;52.122;5.420;2022-10-04T06:27:33;102212.31;;;20.21;57.07
71770;BME280;59605;52.122;5.420;2022-10-04T06:30:05;102199.19;;;20.22;57.47
71770;BME280;59605;52.122;5.420;2022-10-04T06:41:14;102189.56;;;20.23;57.46
71770;BME280;59605;52.122;5.420;2022-10-04T06:46:50;102190.41;;;20.23;57.53
71770;BME280;59605;52.122;5.420;2022-10-04T06:49:40;102187.78;;;20.23;57.26
71770;BME280;59605;52.122;5.420;2022-10-04T06:57:29;102164.97;;;20.27;57.90
71770;BME280;59605;52.122;5.420;2022-10-04T07:00:18;102164.88;;;20.29;57.49
71770;BME280;59605;52.122;5.420;2022-10-04T07:02:59;102157.06;;;20.29;57.53
71770;BME280;59605;52.122;5.420;2022-10-04T07:05:53;102150.91;;;20.30;57.52
71770;BME280;59605;52.122;5.420;2022-10-04T07:08:25;102154.34;;;20.30;57.66
71770;BME280;59605;52.122;5.420;2022-10-04T07:13:54;102155.97;;;20.33;57.62
71770;BME280;59605;52.122;5.420;2022-10-04T07:16:41;102158.56;;;20.33;57.66
71770;BME280;59605;52.122;5.420;2022-10-04T07:19:27;102155.00;;;20.34;57.67
71770;BME280;59605;52.122;5.420;2022-10-04T07:27:41;102169.75;;;20.35;57.82
71770;BME280;59605;52.122;5.420;2022-10-04T07:30:12;102162.66;;;20.37;57.82
71770;BME280;59605;52.122;5.420;2022-10-04T07:32:44;102161.00;;;20.36;57.89
71770;BME280;59605;52.122;5.420;2022-10-04T07:35:13;102159.22;;;20.36;57.92
71770;BME280;59605;52.122;5.420;2022-10-04T07:38:01;102166.13;;;20.37;58.06
71770;BME280;59605;52.122;5.420;2022-10-04T07:40:36;102169.56;;;20.38;57.95
71770;BME280;59605;52.122;5.420;2022-10-04T07:43:05;102180.78;;;20.40;58.44
71770;BME280;59605;52.122;5.420;2022-10-04T07:45:38;102174.78;;;20.38;58.16
71770;BME280;59605;52.122;5.420;2022-10-04T07:48:14;102168.66;;;20.39;58.32
71770;BME280;59605;52.122;5.420;2022-10-04T07:50:50;102166.78;;;20.41;58.52
71770;BME280;59605;52.122;5.420;2022-10-04T07:53:28;102171.00;;;20.44;58.65
71770;BME280;59605;52.122;5.420;2022-10-04T07:56:00;102169.22;;;20.44;58.40
71770;BME280;59605;52.122;5.420;2022-10-04T07:58:42;102176.97;;;20.46;58.36
71770;BME280;59605;52.122;5.420;2022-10-04T08:01:22;102183.88;;;20.47;58.62
71770;BME280;59605;52.122;5.420;2022-10-04T08:04:01;102179.56;;;20.46;58.62
71770;BME280;59605;52.122;5.420;2022-10-04T08:06:33;102185.66;;;20.46;58.75
71770;BME280;59605;52.122;5.420;2022-10-04T08:09:32;102174.28;;;20.47;58.92
71770;BME280;59605;52.122;5.420;2022-10-04T08:15:07;102164.69;;;20.48;58.54
71770;BME280;59605;52.122;5.420;2022-10-04T08:17:55;102169.91;;;20.48;58.71
71770;BME280;59605;52.122;5.420;2022-10-04T08:20:45;102182.94;;;20.48;58.54
71770;BME280;59605;52.122;5.420;2022-10-04T08:23:19;102174.19;;;20.49;58.71
71770;BME280;59605;52.122;5.420;2022-10-04T08:28:51;102172.41;;;20.49;59.18
71770;BME280;59605;52.122;5.420;2022-10-04T08:40:55;102160.88;;;20.53;59.34
71770;BME280;59605;52.122;5.420;2022-10-04T08:49:14;102156.38;;;20.55;59.41
71770;BME280;59605;52.122;5.420;2022-10-04T09:05:17;102159.00;;;20.55;59.27
71770;BME280;59605;52.122;5.420;2022-10-04T09:07:56;102158.06;;;20.56;59.01
71770;BME280;59605;52.122;5.420;2022-10-04T09:13:45;102163.31;;;20.56;59.00
71770;BME280;59605;52.122;5.420;2022-10-04T09:16:18;102164.22;;;20.55;59.46
71770;BME280;59605;52.122;5.420;2022-10-04T09:21:39;102159.00;;;20.55;58.88
71770;BME280;59605;52.122;5.420;2022-10-04T09:27:04;102169.25;;;20.58;59.11
71770;BME280;59605;52.122;5.420;2022-10-04T09:46:52;102161.16;;;20.63;59.03
71770;BME280;59605;52.122;5.420;2022-10-04T09:49:32;102152.47;;;20.63;59.07
71770;BME280;59605;52.122;5.420;2022-10-04T09:52:38;102155.09;;;20.63;59.03
71770;BME280;59605;52.122;5.420;2022-10-04T09:55:26;102156.78;;;20.64;58.95
71770;BME280;59605;52.122;5.420;2022-10-04T09:58:15;102145.47;;;20.63;58.99
71770;BME280;59605;52.122;5.420;2022-10-04T10:01:05;102141.13;;;20.64;58.96
71770;BME280;59605;52.122;5.420;2022-10-04T10:06:17;102132.34;;;20.65;59.03
71770;BME280;59605;52.122;5.420;2022-10-04T10:09:10;102142.81;;;20.65;58.90
71770;BME280;59605;52.122;5.420;2022-10-04T10:14:39;102132.34;;;20.65;59.27
71770;BME280;59605;52.122;5.420;2022-10-04T10:45:04;102147.50;;;20.74;59.10
71770;BME280;59605;52.122;5.420;2022-10-04T10:47:52;102150.94;;;20.74;59.08
71770;BME280;59605;52.122;5.420;2022-10-04T10:50:39;102129.97;;;20.76;59.06
71770;BME280;59605;52.122;5.420;2022-10-04T10:59:53;102122.03;;;20.78;58.94
71770;BME280;59605;52.122;5.420;2022-10-04T11:02:46;102110.75;;;20.77;58.56
71770;BME280;59605;52.122;5.420;2022-10-04T11:11:20;102101.59;;;20.84;59.14
71770;BME280;59605;52.122;5.420;2022-10-04T11:26:16;102102.91;;;20.91;59.54
71770;BME280;59605;52.122;5.420;2022-10-04T11:40:18;102081.19;;;20.91;59.02
71770;BME280;59605;52.122;5.420;2022-10-04T11:51:49;102078.63;;;20.89;58.65
71770;BME280;59605;52.122;5.420;2022-10-04T11:57:47;102072.47;;;20.90;58.82
71770;BME280;59605;52.122;5.420;2022-10-04T12:00:19;102082.00;;;20.91;58.86
71770;BME280;59605;52.122;5.420;2022-10-04T12:05:51;102085.44;;;20.92;58.75
71770;BME280;59605;52.122;5.420;2022-10-04T12:14:47;102066.13;;;20.95;59.36
71770;BME280;59605;52.122;5.420;2022-10-04T12:20:31;102060.91;;;20.95;58.86
71770;BME280;59605;52.122;5.420;2022-10-04T12:28:51;102047.75;;;20.96;59.47
71770;BME280;59605;52.122;5.420;2022-10-04T12:31:30;102038.13;;;20.97;59.85
71770;BME280;59605;52.122;5.420;2022-10-04T12:34:22;102038.88;;;20.99;59.59
71770;BME280;59605;52.122;5.420;2022-10-04T12:37:02;102038.69;;;21.02;59.58
71770;BME280;59605;52.122;5.420;2022-10-04T12:42:48;102025.13;;;21.09;59.72
71770;BME280;59605;52.122;5.420;2022-10-04T12:45:40;102023.91;;;21.15;59.33
71770;BME280;59605;52.122;5.420;2022-10-04T12:56:27;102014.53;;;21.25;59.72
71770;BME280;59605;52.122;5.420;2022-10-04T12:59:33;102010.91;;;21.28;59.42
71770;BME280;59605;52.122;5.420;2022-10-04T13:04:58;102021.38;;;21.28;59.78
71770;BME280;59605;52.122;5.420;2022-10-04T13:07:42;102010.06;;;21.27;59.75
71770;BME280;59605;52.122;5.420;2022-10-04T13:10:16;102005.69;;;21.28;59.74
71770;BME280;59605;52.122;5.420;2022-10-04T13:13:23;102006.50;;;21.28;59.63
71770;BME280;59605;52.122;5.420;2022-10-04T13:16:02;102002.31;;;21.26;59.62
71770;BME280;59605;52.122;5.420;2022-10-04T13:28:05;102000.94;;;21.20;59.92
71770;BME280;59605;52.122;5.420;2022-10-04T13:30:49;102000.19;;;21.18;59.71
71770;BME280;59605;52.122;5.420;2022-10-04T13:33:27;101995.88;;;21.17;59.96
71770;BME280;59605;52.122;5.420;2022-10-04T13:36:07;101992.44;;;21.17;59.88
71770;BME280;59605;52.122;5.420;2022-10-04T13:41:33;101967.31;;;21.14;60.26
71770;BME280;59605;52.122;5.420;2022-10-04T13:44:33;101959.56;;;21.13;60.08
71770;BME280;59605;52.122;5.420;2022-10-04T13:53:03;101936.16;;;21.11;60.08
71770;BME280;59605;52.122;5.420;2022-10-04T14:10:21;101920.38;;;21.13;59.61
71770;BME280;59605;52.122;5.420;2022-10-04T14:13:24;101922.16;;;21.12;59.54
71770;BME280;59605;52.122;5.420;2022-10-04T14:16:29;101923.06;;;21.11;59.44
71770;BME280;59605;52.122;5.420;2022-10-04T14:24:41;101920.66;;;21.08;59.44
71770;BME280;59605;52.122;5.420;2022-10-04T14:36:15;101928.72;;;21.05;59.90
71770;BME280;59605;52.122;5.420;2022-10-04T15:03:39;101932.06;;;21.07;59.48
71770;BME280;59605;52.122;5.420;2022-10-04T15:06:22;101942.50;;;21.07;59.58
71770;BME280;59605;52.122;5.420;2022-10-04T15:09:12;101939.16;;;21.05;59.81
71770;BME280;59605;52.122;5.420;2022-10-04T15:12:24;101940.09;;;21.04;59.49
71770;BME280;59605;52.122;5.420;2022-10-04T15:15:30;101937.47;;;21.04;59.46
71770;BME280;59605;52.122;5.420;2022-10-04T15:18:03;101929.63;;;21.04;59.51
71770;BME280;59605;52.122;5.420;2022-10-04T15:20:55;101933.22;;;21.03;59.65
71770;BME280;59605;52.122;5.420;2022-10-04T15:23:39;101941.88;;;21.03;59.28
71770;BME280;59605;52.122;5.420;2022-10-04T15:31:25;101942.72;;;21.04;59.50
71770;BME280;59605;52.122;5.420;2022-10-04T15:34:00;101927.97;;;21.03;59.55
71770;BME280;59605;52.122;5.420;2022-10-04T15:37:02;101925.38;;;21.03;59.72
71770;BME280;59605;52.122;5.420;2022-10-04T15:45:28;101933.94;;;21.05;60.71
71770;BME280;59605;52.122;5.420;2022-10-04T15:48:09;101927.88;;;21.04;60.68
71770;BME280;59605;52.122;5.420;2022-10-04T15:51:06;101921.69;;;21.05;60.39
71770;BME280;59605;52.122;5.420;2022-10-04T15:59:24;101922.44;;;21.07;60.29
71770;BME280;59605;52.122;5.420;2022-10-04T16:02:22;101920.56;;;21.09;60.31
71770;BME280;59605;52.122;5.420;2022-10-04T16:05:20;101916.38;;;21.07;60.90
71770;BME280;59605;52.122;5.420;2022-10-04T16:07:57;101924.13;;;21.08;61.51
71770;BME280;59605;52.122;5.420;2022-10-04T16:13:45;101921.69;;;21.05;61.52
71770;BME280;59605;52.122;5.420;2022-10-04T16:16:34;101922.56;;;21.06;61.34
71770;BME280;59605;52.122;5.420;2022-10-04T16:22:12;101933.94;;;21.05;61.55
71770;BME280;59605;52.122;5.420;2022-10-04T16:27:44;101927.03;;;21.04;60.76
71770;BME280;59605;52.122;5.420;2022-10-04T16:30:24;101934.88;;;21.04;61.16
71770;BME280;59605;52.122;5.420;2022-10-04T16:33:19;101929.00;;;21.00;61.35
71770;BME280;59605;52.122;5.420;2022-10-04T16:36:01;101930.84;;;20.98;61.33
71770;BME280;59605;52.122;5.420;2022-10-04T16:38:33;101930.03;;;20.98;61.07
71770;BME280;59605;52.122;5.420;2022-10-04T16:41:13;101935.16;;;20.99;61.16
71770;BME280;59605;52.122;5.420;2022-10-04T16:43:51;101929.94;;;20.99;61.09
71770;BME280;59605;52.122;5.420;2022-10-04T16:46:37;101931.72;;;20.99;61.57
71770;BME280;59605;52.122;5.420;2022-10-04T16:49:23;101932.66;;;20.98;61.51
71770;BME280;59605;52.122;5.420;2022-10-04T16:52:10;101933.56;;;20.97;62.04
71770;BME280;59605;52.122;5.420;2022-10-04T16:55:00;101940.59;;;20.96;61.87
71770;BME280;59605;52.122;5.420;2022-10-04T16:57:28;101937.16;;;20.96;61.70
71770;BME280;59605;52.122;5.420;2022-10-04T16:59:59;101947.69;;;20.94;61.31
71770;BME280;59605;52.122;5.420;2022-10-04T17:05:27;101931.25;;;20.92;61.34
71770;BME280;59605;52.122;5.420;2022-10-04T17:08:03;101936.47;;;20.92;60.99
71770;BME280;59605;52.122;5.420;2022-10-04T17:16:11;101940.97;;;20.90;61.06
71770;BME280;59605;52.122;5.420;2022-10-04T17:18:50;101944.44;;;20.90;61.03
71770;BME280;59605;52.122;5.420;2022-10-04T17:21:37;101939.19;;;20.90;61.26
71770;BME280;59605;52.122;5.420;2022-10-04T17:24:16;101929.59;;;20.91;61.02
71770;BME280;59605;52.122;5.420;2022-10-04T17:29:56;101931.25;;;20.92;61.03
71770;BME280;59605;52.122;5.420;2022-10-04T17:32:33;101931.25;;;20.92;61.14
71770;BME280;59605;52.122;5.420;2022-10-04T17:48:54;101932.28;;;20.89;61.03
71770;BME280;59605;52.122;5.420;2022-10-04T17:51:46;101941.81;;;20.90;60.73
71770;BME280;59605;52.122;5.420;2022-10-04T17:54:51;101938.38;;;20.90;61.00
71770;BME280;59605;52.122;5.420;2022-10-04T17:57:44;101941.91;;;20.89;60.52
71770;BME280;59605;52.122;5.420;2022-10-04T18:00:18;101940.13;;;20.89;60.78
71770;BME280;59605;52.122;5.420;2022-10-04T18:08:09;101941.91;;;20.89;60.81
71770;BME280;59605;52.122;5.420;2022-10-04T18:10:49;101929.66;;;20.89;60.97
71770;BME280;59605;52.122;5.420;2022-10-04T18:13:26;101918.38;;;20.89;61.04
71770;BME280;59605;52.122;5.420;2022-10-04T18:16:22;101914.00;;;20.89;61.11
71770;BME280;59605;52.122;5.420;2022-10-04T18:18:51;101921.84;;;20.89;60.76
71770;BME280;59605;52.122;5.420;2022-10-04T18:21:19;101924.53;;;20.88;60.93
71770;BME280;59605;52.122;5.420;2022-10-04T18:23:52;101926.31;;;20.87;60.84
71770;BME280;59605;52.122;5.420;2022-10-04T18:26:20;101931.56;;;20.87;60.87
71770;BME280;59605;52.122;5.420;2022-10-04T18:28:48;101932.47;;;20.86;60.65
71770;BME280;59605;52.122;5.420;2022-10-04T18:31:24;101933.44;;;20.85;60.69
71770;BME280;59605;52.122;5.420;2022-10-04T18:33:52;101926.44;;;20.86;60.77
71770;BME280;59605;52.122;5.420;2022-10-04T18:36:24;101933.44;;;20.85;60.93
71770;BME280;59605;52.122;5.420;2022-10-04T18:39:00;101924.66;;;20.86;60.73
71770;BME280;59605;52.122;5.420;2022-10-04T18:41:29;101926.31;;;20.87;61.10
71770;BME280;59605;52.122;5.420;2022-10-04T18:44:19;101924.53;;;20.88;61.48
71770;BME280;59605;52.122;5.420;2022-10-04T18:46:47;101936.69;;;20.89;61.32
71770;BME280;59605;52.122;5.420;2022-10-04T18:49:20;101928.75;;;20.90;61.43
71770;BME280;59605;52.122;5.420;2022-10-04T18:52:07;101923.53;;;20.90;61.49
71770;BME280;59605;52.122;5.420;2022-10-04T19:00:21;101912.13;;;20.91;62.13
71770;BME280;59605;52.122;5.420;2022-10-04T19:03:44;101915.47;;;20.93;62.21
71770;BME280;59605;52.122;5.420;2022-10-04T19:06:31;101916.34;;;20.94;61.82
71770;BME280;59605;52.122;5.420;2022-10-04T19:09:24;101914.56;;;20.95;61.98
71770;BME280;59605;52.122;5.420;2022-10-04T19:11:55;101904.09;;;20.95;62.33
71770;BME280;59605;52.122;5.420;2022-10-04T19:17:26;101890.94;;;20.96;62.49
71770;BME280;59605;52.122;5.420;2022-10-04T19:20:02;101877.88;;;20.96;62.44
71770;BME280;59605;52.122;5.420;2022-10-04T19:25:32;101871.72;;;20.97;62.65
71770;BME280;59605;52.122;5.420;2022-10-04T19:28:17;101863.88;;;20.97;62.42
71770;BME280;59605;52.122;5.420;2022-10-04T19:34:17;101862.91;;;20.98;62.12
71770;BME280;59605;52.122;5.420;2022-10-04T19:36:52;101868.06;;;21.00;62.06
71770;BME280;59605;52.122;5.420;2022-10-04T19:42:16;101865.53;;;20.98;62.20
71770;BME280;59605;52.122;5.420;2022-10-04T19:45:00;101871.72;;;20.97;62.22
71770;BME280;59605;52.122;5.420;2022-10-04T19:47:35;101875.16;;;20.98;62.04
71770;BME280;59605;52.122;5.420;2022-10-04T19:50:14;101864.59;;;20.99;62.33
71770;BME280;59605;52.122;5.420;2022-10-04T19:53:04;101864.59;;;20.99;62.19
71770;BME280;59605;52.122;5.420;2022-10-04T19:55:37;101869.81;;;20.99;61.87
71770;BME280;59605;52.122;5.420;2022-10-04T20:00:47;101874.94;;;21.01;62.30
71770;BME280;59605;52.122;5.420;2022-10-04T20:03:14;101880.19;;;21.01;62.07
71770;BME280;59605;52.122;5.420;2022-10-04T20:05:42;101882.78;;;21.01;61.49
71770;BME280;59605;52.122;5.420;2022-10-04T20:08:12;101876.72;;;21.00;61.56
71770;BME280;59605;52.122;5.420;2022-10-04T20:10:39;101871.59;;;20.99;61.59
71770;BME280;59605;52.122;5.420;2022-10-04T20:26:05;101879.44;;;20.99;61.39
71770;BME280;59605;52.122;5.420;2022-10-04T20:31:00;101876.84;;;20.99;61.57
71770;BME280;59605;52.122;5.420;2022-10-04T20:36:10;101873.38;;;20.98;61.12
71770;BME280;59605;52.122;5.420;2022-10-04T20:38:55;101873.47;;;20.97;61.30